createdAt,value
2022-08-07T00:00:14.847Z,101980.59
2022-08-07T00:02:48.571Z,101977.47
2022-08-07T00:05:18.616Z,101982.22
2022-08-07T00:07:48.636Z,101980.38
2022-08-07T00:10:31.584Z,101974.34
2022-08-07T00:13:17.478Z,101968.31
2022-08-07T00:15:55.198Z,101974.13
2022-08-07T00:18:28.433Z,101982.63
2022-08-07T00:21:01.497Z,101977.81
2022-08-07T00:23:33.223Z,101976.16
2022-08-07T00:26:13.317Z,101980.72
2022-08-07T00:28:58.901Z,101983.84
2022-08-07T00:31:37.364Z,101980.50
2022-08-07T00:34:09.688Z,101985.09
2022-08-07T00:36:42.994Z,101977.34
2022-08-07T00:39:16.472Z,101979.81
2022-08-07T00:42:05.001Z,101976.91
2022-08-07T00:44:35.675Z,101983.97
2022-08-07T00:48:07.556Z,101979.78
2022-08-07T00:50:19.825Z,101973.75
2022-08-07T00:52:51.253Z,101978.13
2022-08-07T00:55:25.493Z,101983.28
2022-08-07T00:58:16.063Z,101976.16
2022-08-07T01:00:53.568Z,101971.75
2022-08-07T01:03:55.708Z,101972.13
2022-08-07T01:06:15.855Z,101970.66
2022-08-07T01:08:53.229Z,101972.91
2022-08-07T01:12:23.478Z,101971.44
2022-08-07T01:14:17.090Z,101976.84
2022-08-07T01:16:51.514Z,101975.38
2022-08-07T01:19:24.886Z,101977.63
2022-08-07T01:21:59.272Z,101973.28
2022-08-07T01:24:35.376Z,101975.13
2022-08-07T01:27:06.516Z,101973.06
2022-08-07T01:29:50.641Z,101972.88
2022-08-07T01:32:23.057Z,101970.19
2022-08-07T01:34:57.302Z,101963.31
2022-08-07T01:37:30.462Z,101977.19
2022-08-07T01:40:06.689Z,101969.50
2022-08-07T01:42:57.564Z,101969.50
2022-08-07T01:45:37.285Z,101969.91
2022-08-07T01:48:19.710Z,101972.34
2022-08-07T01:50:57.291Z,101969.41
2022-08-07T01:54:09.241Z,101969.78
2022-08-07T01:56:28.965Z,101975.16
2022-08-07T01:59:08.047Z,101972.03
2022-08-07T02:02:00.160Z,101979.28
2022-08-07T02:04:55.670Z,101973.44
2022-08-07T02:07:36.241Z,101982.56
2022-08-07T02:10:27.522Z,101971.97
2022-08-07T02:13:04.154Z,101975.06
2022-08-07T02:15:54.567Z,101971.53
2022-08-07T02:18:46.824Z,101978.16
2022-08-07T02:21:19.061Z,101968.41
2022-08-07T02:23:49.677Z,101969.81
2022-08-07T02:26:33.857Z,101965.84
2022-08-07T02:29:07.663Z,101973.44
2022-08-07T02:31:45.663Z,101968.44
2022-08-07T02:34:18.969Z,101981.47
2022-08-07T02:36:55.452Z,101982.22
2022-08-07T02:39:43.003Z,101976.00
2022-08-07T02:42:21.338Z,101974.13
2022-08-07T02:44:55.530Z,101970.78
2022-08-07T02:47:44.895Z,101969.97
2022-08-07T02:50:18.804Z,101970.78
2022-08-07T02:53:01.020Z,101969.50
2022-08-07T02:56:04.371Z,101965.16
2022-08-07T02:58:33.510Z,101967.22
2022-08-07T03:01:10.435Z,101972.34
2022-08-07T03:03:50.997Z,101966.50
2022-08-07T03:06:33.046Z,101960.22
2022-08-07T03:09:05.685Z,101961.63
2022-08-07T03:11:38.800Z,101970.06
2022-08-07T03:14:15.089Z,101967.38
2022-08-07T03:16:45.613Z,101975.63
2022-08-07T03:19:15.691Z,101978.50
2022-08-07T03:21:50.610Z,101971.84
2022-08-07T03:24:26.858Z,101977.41
2022-08-07T03:27:04.658Z,101976.31
2022-08-07T03:29:51.062Z,101973.38
2022-08-07T03:32:29.790Z,101978.94
2022-08-07T03:35:17.836Z,101978.28
2022-08-07T03:37:55.157Z,101973.94
2022-08-07T03:40:36.800Z,101969.75
2022-08-07T03:43:14.579Z,101984.25
2022-08-07T03:45:52.049Z,101975.72
2022-08-07T03:48:29.790Z,101976.34
2022-08-07T03:51:01.010Z,101976.34
2022-08-07T03:54:32.821Z,101987.31
2022-08-07T03:56:33.307Z,101984.81
2022-08-07T03:59:09.888Z,101988.50
2022-08-07T04:01:49.188Z,101983.47
2022-08-07T04:04:25.110Z,101991.56
2022-08-07T04:07:00.591Z,101989.03
2022-08-07T04:09:45.153Z,101985.03
2022-08-07T04:12:26.703Z,101984.66
2022-08-07T04:15:01.082Z,101984.66
2022-08-07T04:18:11.286Z,101986.16
2022-08-07T04:20:27.763Z,101986.47
2022-08-07T04:23:01.583Z,101991.47
2022-08-07T04:25:35.933Z,101991.94
2022-08-07T04:28:13.307Z,101991.56
2022-08-07T04:30:57.250Z,101985.59
2022-08-07T04:33:38.870Z,101989.59
2022-08-07T04:36:11.139Z,101990.22
2022-08-07T04:38:42.273Z,101998.56
2022-08-07T04:41:18.232Z,102000.50
2022-08-07T04:44:14.472Z,101994.78
2022-08-07T04:47:04.705Z,101999.59
2022-08-07T04:49:57.825Z,102010.22
2022-08-07T04:52:51.070Z,101994.53
2022-08-07T04:58:23.669Z,102000.81
2022-08-07T04:58:42.306Z,102006.06
2022-08-07T05:01:20.693Z,102006.34
2022-08-07T05:04:06.816Z,102002.25
2022-08-07T05:06:51.479Z,102008.56
2022-08-07T05:09:45.589Z,102005.91
2022-08-07T05:12:26.994Z,102002.66
2022-08-07T05:15:21.596Z,102007.44
2022-08-07T05:18:01.586Z,101998.78
2022-08-07T05:20:46.657Z,102004.25
2022-08-07T05:23:31.031Z,102004.50
2022-08-07T05:26:18.732Z,102003.13
2022-08-07T05:28:58.999Z,102004.84
2022-08-07T05:31:38.548Z,102006.34
2022-08-07T05:34:16.372Z,102008.53
2022-08-07T05:36:52.970Z,102013.59
2022-08-07T05:40:06.374Z,102013.44
2022-08-07T05:42:33.383Z,102010.19
2022-08-07T05:45:26.221Z,102016.25
2022-08-07T05:48:03.175Z,102004.47
2022-08-07T05:50:47.367Z,102016.94
2022-08-07T05:54:12.983Z,102017.81
2022-08-07T05:56:16.173Z,102013.28
2022-08-07T05:58:52.726Z,102021.22
2022-08-07T06:01:34.841Z,102017.09
2022-08-07T06:04:08.918Z,102021.69
2022-08-07T06:06:46.041Z,102017.53
2022-08-07T06:09:20.286Z,102016.31
2022-08-07T06:12:18.473Z,102028.78
2022-08-07T06:15:02.961Z,102023.63
2022-08-07T06:17:41.167Z,102029.47
2022-08-07T06:20:25.560Z,102035.94
2022-08-07T06:23:46.663Z,102034.72
2022-08-07T06:26:04.811Z,102028.31
2022-08-07T06:28:52.815Z,102030.81
2022-08-07T06:31:46.677Z,102024.78
2022-08-07T06:34:23.024Z,102022.69
2022-08-07T06:36:56.129Z,102018.09
2022-08-07T06:40:17.951Z,102034.78
2022-08-07T06:42:35.252Z,102025.19
2022-08-07T06:45:19.677Z,102026.00
2022-08-07T06:48:00.097Z,102028.91
2022-08-07T06:50:39.674Z,102037.44
2022-08-07T06:53:18.539Z,102038.28
2022-08-07T06:56:15.517Z,102033.25
2022-08-07T07:00:13.716Z,102035.97
2022-08-07T07:01:51.130Z,102030.53
2022-08-07T07:04:28.270Z,102045.13
2022-08-07T07:07:19.075Z,102034.31
2022-08-07T07:09:57.128Z,102032.63
2022-08-07T07:12:37.998Z,102029.72
2022-08-07T07:15:26.374Z,102028.06
2022-08-07T07:18:12.898Z,102034.03
2022-08-07T07:20:49.072Z,102030.47
2022-08-07T07:24:08.443Z,102030.66
2022-08-07T07:26:33.836Z,102030.00
2022-08-07T07:29:39.079Z,102027.94
2022-08-07T07:32:04.700Z,102019.00
2022-08-07T07:34:41.507Z,102019.97
2022-08-07T07:37:21.470Z,102024.50
2022-08-07T07:39:55.575Z,102024.13
2022-08-07T07:42:32.754Z,102016.72
2022-08-07T07:45:04.539Z,102014.16
2022-08-07T07:47:51.851Z,102010.38
2022-08-07T07:50:34.580Z,102011.75
2022-08-07T07:53:20.499Z,102010.31
2022-08-07T07:55:57.774Z,102002.56
2022-08-07T07:58:40.538Z,101996.59
2022-08-07T08:02:02.856Z,102000.94
2022-08-07T08:04:10.163Z,101992.31
2022-08-07T08:06:52.040Z,101990.44
2022-08-07T08:09:29.523Z,102002.59
2022-08-07T08:12:05.978Z,101992.41
2022-08-07T08:14:37.401Z,102001.56
2022-08-07T08:17:55.654Z,101991.53
2022-08-07T08:20:17.829Z,101994.19
2022-08-07T08:23:09.797Z,101986.56
2022-08-07T08:25:56.225Z,101984.25
2022-08-07T08:28:38.518Z,101994.31
2022-08-07T08:31:18.311Z,101998.84
2022-08-07T08:34:04.110Z,101989.06
2022-08-07T08:36:36.912Z,101991.75
2022-08-07T08:39:11.877Z,101983.16
2022-08-07T08:41:57.286Z,101979.69
2022-08-07T08:44:37.284Z,101982.41
2022-08-07T08:47:25.053Z,101983.94
2022-08-07T08:50:06.474Z,101989.47
2022-08-07T08:52:40.815Z,101981.81
2022-08-07T08:55:54.236Z,101985.00
2022-08-07T08:58:29.978Z,101979.56
2022-08-07T09:01:14.739Z,101972.88
2022-08-07T09:03:55.645Z,101971.22
2022-08-07T09:06:47.718Z,101981.22
2022-08-07T09:09:38.554Z,101972.25
2022-08-07T09:12:20.246Z,101965.91
2022-08-07T09:16:20.575Z,101964.97
2022-08-07T09:18:22.554Z,101970.13
2022-08-07T09:21:02.310Z,101962.06
2022-08-07T09:24:33.685Z,101966.22
2022-08-07T09:26:51.051Z,101963.25
2022-08-07T09:30:04.372Z,101962.63
2022-08-07T09:32:31.508Z,101961.81
2022-08-07T09:36:04.889Z,101954.13
2022-08-07T09:38:12.330Z,101953.53
2022-08-07T09:40:55.834Z,101940.19
2022-08-07T09:44:03.054Z,101947.22
2022-08-07T09:47:52.378Z,101944.16
2022-08-07T09:50:01.223Z,101935.97
2022-08-07T09:52:42.942Z,101939.75
2022-08-07T09:55:29.757Z,101937.69
2022-08-07T09:58:32.879Z,101929.66
2022-08-07T10:01:52.374Z,101931.53
2022-08-07T10:04:38.124Z,101926.09
2022-08-07T10:07:53.055Z,101924.56
2022-08-07T10:11:07.556Z,101912.38
2022-08-07T10:14:00.686Z,101920.84
2022-08-07T10:17:03.131Z,101916.50
2022-08-07T10:20:01.000Z,101915.34
2022-08-07T10:22:50.837Z,101909.91
2022-08-07T10:25:42.724Z,101908.38
2022-08-07T10:28:49.658Z,101903.84
2022-08-07T10:31:40.929Z,101904.44
2022-08-07T10:34:31.979Z,101902.66
2022-08-07T10:37:26.330Z,101891.91
2022-08-07T10:40:21.154Z,101888.09
2022-08-07T10:43:03.589Z,101886.94
2022-08-07T10:45:57.156Z,101887.16
2022-08-07T10:48:39.209Z,101880.78
2022-08-07T10:51:16.591Z,101878.88
2022-08-07T10:54:16.065Z,101877.25
2022-08-07T10:57:00.174Z,101870.09
2022-08-07T10:59:45.326Z,101865.16
2022-08-07T11:02:33.358Z,101861.28
2022-08-07T11:05:16.590Z,101869.19
2022-08-07T11:07:59.491Z,101859.19
2022-08-07T11:10:43.667Z,101860.31
2022-08-07T11:14:42.116Z,101859.28
2022-08-07T11:16:25.582Z,101855.16
2022-08-07T11:19:08.166Z,101844.16
2022-08-07T11:21:47.296Z,101845.50
2022-08-07T11:24:24.897Z,101841.47
2022-08-07T11:27:04.775Z,101840.13
2022-08-07T11:29:48.290Z,101836.91
2022-08-07T11:32:31.091Z,101829.13
2022-08-07T11:35:03.280Z,101832.09
2022-08-07T11:38:10.526Z,101827.56
2022-08-07T11:40:50.687Z,101823.69
2022-08-07T11:43:41.596Z,101821.09
2022-08-07T11:46:31.381Z,101817.97
2022-08-07T11:49:50.368Z,101816.72
2022-08-07T11:52:29.524Z,101814.56
2022-08-07T11:56:08.692Z,101806.38
2022-08-07T11:58:16.504Z,101816.41
2022-08-07T12:01:04.442Z,101805.69
2022-08-07T12:03:52.848Z,101808.97
2022-08-07T12:06:39.223Z,101807.09
2022-08-07T12:09:23.385Z,101799.59
2022-08-07T12:12:10.192Z,101794.56
2022-08-07T12:14:55.692Z,101788.84
2022-08-07T12:17:59.333Z,101792.16
2022-08-07T12:20:37.963Z,101797.81
2022-08-07T12:24:07.298Z,101784.97
2022-08-07T12:26:40.595Z,101789.44
2022-08-07T12:29:38.333Z,101783.34
2022-08-07T12:32:17.227Z,101781.78
2022-08-07T12:34:56.238Z,101773.97
2022-08-07T12:38:09.698Z,101775.94
2022-08-07T12:40:47.481Z,101769.88
2022-08-07T12:44:02.942Z,101764.34
2022-08-07T12:46:26.448Z,101756.75
2022-08-07T12:49:39.588Z,101758.59
2022-08-07T12:52:14.377Z,101764.84
2022-08-07T12:54:55.574Z,101758.44
2022-08-07T12:58:01.327Z,101746.28
2022-08-07T13:00:34.580Z,101742.22
2022-08-07T13:03:52.780Z,101746.59
2022-08-07T13:06:29.390Z,101748.25
2022-08-07T13:09:33.388Z,101744.88
2022-08-07T13:12:13.275Z,101739.81
2022-08-07T13:14:55.209Z,101738.31
2022-08-07T13:17:40.806Z,101738.66
2022-08-07T13:20:18.373Z,101730.06
2022-08-07T13:22:58.393Z,101723.78
2022-08-07T13:25:43.161Z,101723.34
2022-08-07T13:28:25.167Z,101730.13
2022-08-07T13:31:02.101Z,101721.50
2022-08-07T13:34:30.882Z,101720.28
2022-08-07T13:36:48.072Z,101718.56
2022-08-07T13:39:49.122Z,101722.25
2022-08-07T13:42:24.756Z,101713.00
2022-08-07T13:45:20.619Z,101716.28
2022-08-07T13:48:07.732Z,101707.03
2022-08-07T13:50:44.466Z,101702.44
2022-08-07T13:53:35.859Z,101707.63
2022-08-07T13:56:35.734Z,101694.59
2022-08-07T13:59:16.690Z,101691.84
2022-08-07T14:02:03.438Z,101694.34
2022-08-07T14:04:48.912Z,101695.97
2022-08-07T14:07:25.019Z,101694.59
2022-08-07T14:10:14.898Z,101684.75
2022-08-07T14:12:55.995Z,101692.09
2022-08-07T14:15:40.152Z,101680.63
2022-08-07T14:18:28.910Z,101676.59
2022-08-07T14:21:21.071Z,101674.69
2022-08-07T14:24:02.333Z,101666.84
2022-08-07T14:26:40.745Z,101672.28
2022-08-07T14:30:05.847Z,101670.38
2022-08-07T14:32:20.535Z,101670.88
2022-08-07T14:34:56.323Z,101668.09
2022-08-07T14:37:36.360Z,101662.53
2022-08-07T14:40:27.259Z,101658.25
2022-08-07T14:43:57.074Z,101658.50
2022-08-07T14:45:54.686Z,101656.34
2022-08-07T14:48:32.627Z,101655.16
2022-08-07T14:51:07.530Z,101651.03
2022-08-07T14:54:05.797Z,101656.16
2022-08-07T14:56:43.822Z,101648.47
2022-08-07T15:00:03.521Z,101650.06
2022-08-07T15:05:20.253Z,101643.94
2022-08-07T15:07:55.224Z,101650.91
2022-08-07T15:13:25.286Z,101645.16
2022-08-07T15:16:00.955Z,101638.28
2022-08-07T15:18:36.197Z,101635.00
2022-08-07T15:21:44.379Z,101638.88
2022-08-07T15:27:11.451Z,101628.56
2022-08-07T15:30:09.681Z,101628.31
2022-08-07T15:32:39.424Z,101627.41
2022-08-07T15:35:16.781Z,101626.00
2022-08-07T15:38:04.504Z,101622.13
2022-08-07T15:41:22.995Z,101625.09
2022-08-07T15:43:55.938Z,101623.53
2022-08-07T15:46:32.314Z,101623.63
2022-08-07T15:49:14.437Z,101608.94
2022-08-07T15:54:39.724Z,101614.72
2022-08-07T15:57:39.127Z,101614.22
2022-08-07T16:00:06.296Z,101611.28
2022-08-07T16:02:46.989Z,101613.38
2022-08-07T16:05:20.367Z,101612.56
2022-08-07T16:08:33.270Z,101609.59
2022-08-07T16:11:03.957Z,101601.94
2022-08-07T16:14:03.191Z,101604.06
2022-08-07T16:16:56.788Z,101601.84
2022-08-07T16:19:42.229Z,101609.94
2022-08-07T16:22:54.542Z,101606.88
2022-08-07T16:25:54.580Z,101609.25
2022-08-07T16:29:18.246Z,101605.13
2022-08-07T16:31:58.090Z,101606.44
2022-08-07T16:34:39.592Z,101608.84
2022-08-07T16:38:04.748Z,101607.44
2022-08-07T16:41:01.774Z,101607.44
2022-08-07T16:44:05.991Z,101599.53
2022-08-07T16:47:28.863Z,101597.28
2022-08-07T16:50:37.128Z,101598.13
2022-08-07T16:54:03.005Z,101597.03
2022-08-07T16:56:20.644Z,101601.66
2022-08-07T16:59:15.016Z,101603.16
2022-08-07T17:01:59.592Z,101600.69
2022-08-07T17:04:57.415Z,101600.69
2022-08-07T17:07:51.427Z,101595.81
2022-08-07T17:10:36.265Z,101600.00
2022-08-07T17:13:41.102Z,101600.00
2022-08-07T17:16:25.557Z,101598.69
2022-08-07T17:19:04.943Z,101603.56
2022-08-07T17:21:50.670Z,101592.03
2022-08-07T17:24:49.890Z,101599.63
2022-08-07T17:27:37.129Z,101593.34
2022-08-07T17:30:27.037Z,101615.34
2022-08-07T17:34:32.748Z,101606.03
2022-08-07T17:36:06.224Z,101600.84
2022-08-07T17:38:55.374Z,101608.41
2022-08-07T17:42:04.128Z,101609.47
2022-08-07T17:44:33.933Z,101610.31
2022-08-07T17:47:16.825Z,101605.34
2022-08-07T17:49:56.145Z,101603.13
2022-08-07T17:52:33.878Z,101611.28
2022-08-07T17:55:13.367Z,101606.34
2022-08-07T17:57:59.012Z,101610.13
2022-08-07T18:00:48.875Z,101610.13
2022-08-07T18:03:28.511Z,101609.28
2022-08-07T18:06:38.694Z,101610.94
2022-08-07T18:09:48.284Z,101604.09
2022-08-07T18:12:30.621Z,101606.00
2022-08-07T18:15:08.753Z,101605.66
2022-08-07T18:18:47.449Z,101604.00
2022-08-07T18:21:11.698Z,101606.97
2022-08-07T18:23:57.238Z,101599.75
2022-08-07T18:26:59.647Z,101604.25
2022-08-07T18:30:04.671Z,101601.78
2022-08-07T18:33:15.386Z,101610.19
2022-08-07T18:35:57.431Z,101616.09
2022-08-07T18:38:55.109Z,101612.22
2022-08-07T18:41:48.030Z,101620.84
2022-08-07T18:45:39.710Z,101625.38
2022-08-07T18:47:44.588Z,101617.66
2022-08-07T18:50:45.395Z,101626.53
2022-08-07T18:53:36.987Z,101625.31
2022-08-07T18:56:16.972Z,101620.63
2022-08-07T18:59:46.712Z,101633.03
2022-08-07T19:02:17.989Z,101626.41
2022-08-07T19:05:15.460Z,101632.09
2022-08-07T19:07:59.350Z,101630.31
2022-08-07T19:10:39.795Z,101637.06
2022-08-07T19:13:27.417Z,101638.38
2022-08-07T19:16:43.018Z,101636.34
2022-08-07T19:19:03.203Z,101641.44
2022-08-07T19:21:56.168Z,101634.59
2022-08-07T19:24:38.026Z,101645.91
2022-08-07T19:28:29.663Z,101652.03
2022-08-07T19:31:02.235Z,101654.63
2022-08-07T19:33:12.809Z,101646.72
2022-08-07T19:35:48.951Z,101650.94
2022-08-07T19:38:22.625Z,101655.78
2022-08-07T19:40:54.440Z,101651.66
2022-08-07T19:43:43.645Z,101650.69
2022-08-07T19:46:18.992Z,101660.13
2022-08-07T19:48:54.637Z,101660.25
2022-08-07T19:51:51.311Z,101662.09
2022-08-07T19:54:35.150Z,101657.97
2022-08-07T19:58:01.027Z,101670.72
2022-08-07T20:00:10.591Z,101667.88
2022-08-07T20:02:51.927Z,101669.84
2022-08-07T20:05:29.596Z,101674.69
2022-08-07T20:08:06.726Z,101669.72
2022-08-07T20:10:55.629Z,101672.69
2022-08-07T20:13:33.068Z,101673.38
2022-08-07T20:16:15.667Z,101668.41
2022-08-07T20:18:52.943Z,101668.03
2022-08-07T20:21:25.147Z,101675.19
2022-08-07T20:24:08.060Z,101680.84
2022-08-07T20:26:49.978Z,101672.72
2022-08-07T20:29:47.792Z,101678.34
2022-08-07T20:32:22.348Z,101686.94
2022-08-07T20:34:58.788Z,101681.97
2022-08-07T20:37:37.146Z,101686.19
2022-08-07T20:40:32.437Z,101686.19
2022-08-07T20:43:09.494Z,101687.47
2022-08-07T20:46:25.606Z,101686.28
2022-08-07T20:48:57.865Z,101685.47
2022-08-07T20:51:36.018Z,101684.84
2022-08-07T20:54:12.211Z,101696.16
2022-08-07T20:56:52.885Z,101694.13
2022-08-07T21:00:04.657Z,101687.28
2022-08-07T21:02:31.513Z,101688.56
2022-08-07T21:05:04.557Z,101688.16
2022-08-07T21:07:42.198Z,101690.28
2022-08-07T21:10:25.237Z,101689.06
2022-08-07T21:13:24.738Z,101697.44
2022-08-07T21:16:11.759Z,101692.25
2022-08-07T21:18:46.010Z,101694.19
2022-08-07T21:21:18.159Z,101704.66
2022-08-07T21:23:59.373Z,101698.88
2022-08-07T21:26:36.832Z,101697.22
2022-08-07T21:29:18.781Z,101702.25
2022-08-07T21:32:43.760Z,101700.59
2022-08-07T21:35:00.626Z,101699.78
2022-08-07T21:37:58.054Z,101697.53
2022-08-07T21:40:39.492Z,101698.13
2022-08-07T21:43:13.485Z,101701.28
2022-08-07T21:46:10.324Z,101696.53
2022-08-07T21:48:56.444Z,101694.28
2022-08-07T21:51:51.403Z,101694.13
2022-08-07T21:54:38.760Z,101693.75
2022-08-07T21:57:44.697Z,101694.19
2022-08-07T22:00:22.649Z,101695.47
2022-08-07T22:03:06.190Z,101690.94
2022-08-07T22:05:48.623Z,101686.41
2022-08-07T22:08:21.482Z,101690.38
2022-08-07T22:11:11.220Z,101694.34
2022-08-07T22:13:51.056Z,101693.31
2022-08-07T22:16:42.655Z,101690.44
2022-08-07T22:19:29.769Z,101695.25
2022-08-07T22:22:27.405Z,101702.97
2022-08-07T22:25:08.404Z,101691.75
2022-08-07T22:28:07.675Z,101695.13
2022-08-07T22:30:51.943Z,101690.78
2022-08-07T22:33:52.750Z,101696.59
2022-08-07T22:36:31.517Z,101693.06
2022-08-07T22:39:07.081Z,101696.00
2022-08-07T22:42:03.153Z,101695.59
2022-08-07T22:44:36.767Z,101701.22
2022-08-07T22:47:52.356Z,101690.81
2022-08-07T22:50:39.073Z,101695.41
2022-08-07T22:54:05.413Z,101698.31
2022-08-07T22:56:28.837Z,101701.88
2022-08-07T22:59:44.682Z,101696.88
2022-08-07T23:02:32.936Z,101700.66
2022-08-07T23:06:07.424Z,101695.66
2022-08-07T23:08:51.622Z,101706.94
2022-08-07T23:11:41.238Z,101703.84
2022-08-07T23:14:30.523Z,101702.41
2022-08-07T23:17:25.228Z,101706.16
2022-08-07T23:20:40.719Z,101700.97
2022-08-07T23:24:05.394Z,101703.66
2022-08-07T23:26:50.722Z,101709.72
2022-08-07T23:30:39.546Z,101703.94
2022-08-07T23:34:34.420Z,101706.25
2022-08-07T23:35:57.404Z,101706.47
2022-08-07T23:38:42.843Z,101708.72
2022-08-07T23:41:47.531Z,101703.16
2022-08-07T23:44:43.472Z,101707.13
2022-08-07T23:47:31.511Z,101704.00
2022-08-07T23:50:29.734Z,101704.66
2022-08-07T23:53:08.442Z,101711.13
2022-08-07T23:55:56.224Z,101711.75
2022-08-07T23:58:35.085Z,101708.22
